Terminal Aerodrome Forecast
Issued by NWS

Home | Current Version | Previous Version | Graphics & Text | Print | Product List | Glossary On
Versions: 1 2 3 4 5 6 7 8 9 10 11 12
000
FTUS42 KMHX 201100
TAFOAJ
TAF
KOAJ 201125Z 2012/2112 21005KT P6SM SKC
     FM201500 24011G19KT P6SM SKC
     FM202200 23003KT P6SM SKC
     FM210700 33004KT P6SM SKC
      AMD LTD TO CLD VIS AND WIND=

USA.gov is the U.S. government's official web portal to all federal, state and local government web resources and services.